Time;durP1;ratioP1;P1;durP2;ratioP2;P2;SDS_P1;SDS_P2;PMS_P1;PMS_P2;Temp;Humidity;BMP_temperature;BMP_pressure;BME280_temperature;BME280_humidity;BME280_pressure;Samples;Min_cycle;Max_cycle;Signal;HPM_P1;HPM_P2
2022/09/23 00:00:35;;;;;;;1.40;1.35;;;;;;;4.72;67.89;93632.91;5090495;28;20012;-34
2022/09/23 00:03:00;;;;;;;0.82;0.82;;;;;;;4.60;68.71;93632.97;5090372;28;20036;-34
2022/09/23 00:05:26;;;;;;;1.25;1.25;;;;;;;4.63;68.28;93636.69;5090322;28;20527;-34
2022/09/23 00:07:53;;;;;;;1.90;1.45;;;;;;;4.49;68.45;93630.28;5090678;28;20105;-34
2022/09/23 00:10:19;;;;;;;1.77;1.67;;;;;;;4.44;68.78;93636.50;5090506;28;20028;-34
2022/09/23 00:12:45;;;;;;;0.95;0.95;;;;;;;4.56;68.65;93632.47;5089415;28;20089;-34
2022/09/23 00:15:10;;;;;;;1.85;1.35;;;;;;;4.46;68.93;93628.53;5090502;28;20027;-34
2022/09/23 00:17:36;;;;;;;0.65;0.65;;;;;;;4.49;68.88;93622.06;5090274;28;20028;-34
2022/09/23 00:20:02;;;;;;;1.35;1.35;;;;;;;4.55;68.42;93630.22;5090617;28;20492;-34
2022/09/23 00:22:27;;;;;;;1.20;1.20;;;;;;;4.51;68.46;93633.25;5090108;28;20028;-34
2022/09/23 00:24:53;;;;;;;2.92;2.72;;;;;;;4.35;67.90;93625.13;5093985;28;20077;-34
2022/09/23 00:27:20;;;;;;;3.05;2.58;;;;;;;4.29;69.01;93627.88;5094566;28;20027;-39
2022/09/23 00:29:46;;;;;;;1.20;1.20;;;;;;;4.26;68.80;93626.16;5094227;28;20110;-34
2022/09/23 00:32:11;;;;;;;1.15;1.15;;;;;;;4.25;67.66;93630.13;5093315;28;20020;-34
2022/09/23 00:34:37;;;;;;;1.05;1.05;;;;;;;4.28;68.12;93629.13;5094149;28;20024;-34
2022/09/23 00:37:02;;;;;;;2.97;2.33;;;;;;;4.22;68.93;93630.41;5094446;28;20035;-34
2022/09/23 00:39:28;;;;;;;2.28;1.30;;;;;;;4.23;69.23;93627.16;5094327;28;20028;-34
2022/09/23 00:41:53;;;;;;;0.50;0.50;;;;;;;4.24;68.46;93620.47;5094190;28;20035;-34
2022/09/23 00:44:39;;;;;;;0.60;0.60;;;;;;;4.23;68.58;93624.44;5092793;28;20543;-34
2022/09/23 00:47:12;;;;;;;0.77;0.77;;;;;;;4.09;68.97;93616.56;5094133;28;20385;-34
2022/09/23 00:49:38;;;;;;;0.43;0.43;;;;;;;4.31;68.73;93624.66;5092595;28;20036;-34
2022/09/23 00:52:11;;;;;;;0.93;0.93;;;;;;;4.34;68.43;93616.19;5094076;28;20028;-34
2022/09/23 00:54:36;;;;;;;0.55;0.55;;;;;;;4.36;68.91;93618.41;5094059;28;20024;-34
2022/09/23 00:57:04;;;;;;;3.17;2.97;;;;;;;4.20;69.85;93605.59;5093691;28;20035;-34
2022/09/23 00:59:30;;;;;;;1.65;1.55;;;;;;;4.15;70.34;93615.28;5076066;28;20020;-34
2022/09/23 01:01:56;;;;;;;0.38;0.38;;;;;;;4.16;69.60;93624.94;5109579;28;20435;-34
2022/09/23 01:04:22;;;;;;;1.30;1.30;;;;;;;4.03;70.62;93624.75;5095843;28;20030;-34
2022/09/23 01:06:48;;;;;;;3.33;3.03;;;;;;;3.93;69.34;93628.25;5113033;28;20464;-34
2022/09/23 01:09:14;;;;;;;1.25;1.25;;;;;;;3.91;69.68;93622.56;5113897;28;20038;-34
2022/09/23 01:11:52;;;;;;;2.47;2.10;;;;;;;3.82;69.99;93620.84;5113799;27;20031;-34
2022/09/23 01:14:30;;;;;;;2.00;1.80;;;;;;;3.85;70.32;93622.59;5112659;28;20080;-33
2022/09/23 01:16:59;;;;;;;2.05;1.95;;;;;;;3.80;70.80;93620.59;5114113;28;20066;-34
2022/09/23 01:19:34;;;;;;;0.82;0.82;;;;;;;3.93;70.26;93620.06;5113793;28;20027;-34
2022/09/23 01:22:03;;;;;;;0.80;0.77;;;;;;;4.04;69.65;93620.78;5113894;28;20459;-34
2022/09/23 01:24:29;;;;;;;;;;;;;;;3.92;70.31;93621.34;5114350;28;20452;-34
2022/09/23 01:27:12;;;;;;;0.57;0.57;;;;;;;3.87;70.81;93622.09;5095055;28;19956;-34
2022/09/23 01:29:47;;;;;;;0.40;0.40;;;;;;;3.72;71.27;93616.91;5108562;28;20027;-34
2022/09/23 01:32:24;;;;;;;0.55;0.55;;;;;;;3.89;71.75;93617.63;5113774;28;20084;-34
2022/09/23 01:34:55;;;;;;;0.93;0.93;;;;;;;3.83;72.46;93617.63;5113224;28;20046;-34
2022/09/23 01:37:48;;;;;;;2.92;2.65;;;;;;;3.87;73.01;93616.63;5113596;28;20467;-34
2022/09/23 01:40:19;;;;;;;1.10;1.00;;;;;;;3.88;72.63;93620.84;5113446;27;20032;-34
2022/09/23 01:42:57;;;;;;;2.67;2.47;;;;;;;3.98;71.78;93622.06;5099884;28;20111;-34
2022/09/23 01:45:29;;;;;;;3.60;3.40;;;;;;;3.96;70.91;93616.34;5092996;28;20068;-34
2022/09/23 01:48:01;;;;;;;0.82;0.82;;;;;;;3.71;71.56;93612.69;5092000;28;20032;-34
2022/09/23 01:51:18;;;;;;;3.47;2.20;;;;;;;3.95;70.27;93615.59;5091908;28;20036;-34
2022/09/23 01:53:54;;;;;;;1.25;1.00;;;;;;;3.81;70.10;93620.09;5081190;28;20093;-34
2022/09/23 01:56:28;;;;;;;1.30;1.30;;;;;;;3.77;69.78;93618.88;5081719;28;20040;-34
2022/09/23 01:59:04;;;;;;;1.30;1.30;;;;;;;3.65;69.90;93625.63;5091724;28;20028;-34
2022/09/23 02:01:38;;;;;;;0.40;0.40;;;;;;;3.62;69.73;93613.69;5092432;28;20044;-34
2022/09/23 02:04:14;;;;;;;1.27;1.25;;;;;;;3.45;70.08;93620.44;5091471;28;20518;-34
2022/09/23 02:06:45;;;;;;;2.75;2.40;;;;;;;3.45;69.83;93621.19;5091307;28;20032;-34
2022/09/23 02:09:16;;;;;;;0.77;0.77;;;;;;;3.51;68.69;93621.91;5091558;28;20408;-34
2022/09/23 02:11:45;;;;;;;0.68;0.68;;;;;;;3.33;69.20;93624.44;5091279;28;20024;-34
2022/09/23 02:14:36;;;;;;;0.98;0.98;;;;;;;3.44;68.77;93627.13;5091347;28;20043;-34
2022/09/23 02:17:08;;;;;;;0.50;0.50;;;;;;;3.23;69.39;93620.47;5092318;28;20028;-34
2022/09/23 02:19:53;;;;;;;1.42;1.33;;;;;;;3.29;69.46;93613.75;5074383;28;20073;-34
2022/09/23 02:22:28;;;;;;;1.85;1.75;;;;;;;3.26;71.06;93620.22;5091230;28;20028;-34
2022/09/23 02:24:55;;;;;;;0.85;0.85;;;;;;;3.26;71.14;93614.00;5091897;28;20115;-33
2022/09/23 02:27:30;;;;;;;2.22;1.35;;;;;;;3.21;72.12;93614.75;5092298;28;20447;-34
2022/09/23 02:30:12;;;;;;;0.77;0.77;;;;;;;3.22;71.84;93600.63;5091996;28;20036;-34
2022/09/23 02:33:03;;;;;;;1.83;1.75;;;;;;;3.39;71.29;93616.97;5091136;28;20089;-34
2022/09/23 02:35:40;;;;;;;1.50;1.40;;;;;;;3.42;71.75;93618.72;5091950;28;20024;-34
2022/09/23 02:38:11;;;;;;;0.47;0.47;;;;;;;3.25;72.47;93612.53;5091034;28;20419;-34
2022/09/23 02:40:44;;;;;;;1.23;1.15;;;;;;;3.36;72.53;93617.94;5091913;28;20024;-34
2022/09/23 02:43:31;;;;;;;1.40;1.20;;;;;;;3.20;73.13;93618.72;5091724;28;20051;-34
2022/09/23 02:45:56;;;;;;;8.15;1.80;;;;;;;3.36;72.82;93623.41;5090899;28;20031;-34
2022/09/23 02:48:28;;;;;;;1.63;1.52;;;;;;;3.43;73.37;93625.66;5091949;28;20032;-34
2022/09/23 02:50:53;;;;;;;0.65;0.65;;;;;;;3.50;73.38;93622.41;5090564;28;20523;-34
2022/09/23 02:53:21;;;;;;;0.60;0.60;;;;;;;3.46;73.76;93617.22;5091913;28;20020;-34
2022/09/23 02:55:47;;;;;;;1.00;1.00;;;;;;;3.69;73.03;93623.38;5091527;28;20088;-34
2022/09/23 02:58:13;;;;;;;2.72;2.45;;;;;;;3.74;72.63;93619.88;5091330;28;20032;-34
2022/09/23 03:00:48;;;;;;;1.48;1.38;;;;;;;3.74;72.25;93628.84;5096530;28;20175;-34
2022/09/23 03:03:38;;;;;;;0.60;0.60;;;;;;;3.69;72.67;93620.63;5111879;28;20023;-34
2022/09/23 03:06:14;;;;;;;1.83;1.75;;;;;;;3.73;73.13;93615.66;5110401;28;20107;-34
2022/09/23 03:08:52;;;;;;;1.13;1.00;;;;;;;3.79;72.18;93632.75;5110387;28;20027;-34
2022/09/23 03:11:17;;;;;;;2.33;2.20;;;;;;;3.85;72.42;93628.06;5110395;28;20050;-34
2022/09/23 03:13:54;;;;;;;0.43;0.43;;;;;;;4.01;72.17;93631.97;5111493;28;20495;-34
2022/09/23 03:16:26;;;;;;;0.68;0.68;;;;;;;3.85;71.69;93630.78;5111632;28;20104;-34
2022/09/23 03:19:33;;;;;;;0.50;0.50;;;;;;;3.89;71.92;93634.00;5111326;28;20084;-34
2022/09/23 03:22:06;;;;;;;2.58;2.38;;;;;;;3.78;72.51;93628.56;5081637;28;20624;-34
2022/09/23 03:24:33;;;;;;;0.40;0.40;;;;;;;3.78;72.37;93634.03;5111343;28;20028;-34
2022/09/23 03:27:19;;;;;;;0.40;0.40;;;;;;;3.88;72.91;93639.97;5090655;28;20016;-34
2022/09/23 03:29:49;;;;;;;0.50;0.50;;;;;;;4.01;73.05;93640.91;5106984;28;20085;-34
2022/09/23 03:32:17;;;;;;;0.30;0.30;;;;;;;3.86;73.44;93635.00;5110230;28;20024;-34
2022/09/23 03:34:44;;;;;;;0.73;0.73;;;;;;;4.03;73.86;93640.41;5110257;28;20031;-34
2022/09/23 03:37:16;;;;;;;0.43;0.43;;;;;;;4.07;73.45;93636.16;5102045;28;20089;-34
2022/09/23 03:39:47;;;;;;;0.90;0.90;;;;;;;4.11;72.92;93636.66;5090683;28;20027;-34
2022/09/23 03:42:28;;;;;;;1.25;1.25;;;;;;;4.23;72.24;93642.81;5089348;28;20491;-34
2022/09/23 03:44:56;;;;;;;0.73;0.73;;;;;;;4.33;72.08;93636.56;5090921;28;20031;-34
2022/09/23 03:47:24;;;;;;;1.25;1.25;;;;;;;4.13;71.71;93615.03;5089306;28;20031;-34
2022/09/23 03:49:50;;;;;;;0.75;0.75;;;;;;;4.39;72.23;93636.53;5090572;28;20024;-34
2022/09/23 03:52:17;;;;;;;3.38;3.15;;;;;;;4.42;71.87;93641.75;5090443;28;20027;-34
2022/09/23 03:54:42;;;;;;;1.30;1.30;;;;;;;4.42;72.19;93638.25;5090518;28;20063;-34
2022/09/23 03:57:09;;;;;;;1.33;1.23;;;;;;;4.23;72.67;93634.63;5090541;28;20051;-34
2022/09/23 03:59:35;;;;;;;1.08;1.08;;;;;;;4.32;72.23;93639.81;5090655;28;20355;-34
2022/09/23 04:02:01;;;;;;;0.60;0.60;;;;;;;4.33;72.51;93642.03;5090208;28;20127;-34
2022/09/23 04:04:27;;;;;;;2.42;2.33;;;;;;;4.36;72.62;93637.53;5090325;28;20512;-34
2022/09/23 04:06:54;;;;;;;0.40;0.40;;;;;;;4.27;73.11;93633.09;5090415;28;20035;-34
2022/09/23 04:09:20;;;;;;;1.42;1.40;;;;;;;4.30;73.10;93643.03;5088988;28;20469;-34
2022/09/23 04:11:47;;;;;;;1.90;1.55;;;;;;;4.33;72.95;93639.28;5090575;28;20032;-34
2022/09/23 04:14:13;;;;;;;2.47;1.55;;;;;;;4.30;73.24;93634.09;5090233;28;20492;-34
2022/09/23 04:16:39;;;;;;;0.30;0.30;;;;;;;4.32;73.04;93639.81;5090192;28;20078;-34
2022/09/23 04:19:05;;;;;;;1.33;1.33;;;;;;;4.24;73.94;93645.06;5090506;28;20035;-34
2022/09/23 04:21:30;;;;;;;0.30;0.30;;;;;;;4.27;74.33;93646.78;5090404;28;20036;-34
2022/09/23 04:23:56;;;;;;;0.95;0.93;;;;;;;4.35;74.37;93633.34;5090368;28;20101;-34
2022/09/23 04:26:21;;;;;;;2.00;1.63;;;;;;;4.42;74.40;93643.72;5088896;28;20028;-34
2022/09/23 04:28:47;;;;;;;3.25;3.08;;;;;;;4.50;74.03;93641.97;5090440;28;20470;-34
2022/09/23 04:31:12;;;;;;;2.22;1.63;;;;;;;4.51;74.75;93641.44;5090176;28;20442;-34
2022/09/23 04:33:38;;;;;;;0.55;0.55;;;;;;;4.63;74.68;93645.59;5089962;28;20047;-34
2022/09/23 04:36:03;;;;;;;3.33;3.13;;;;;;;4.51;74.13;93629.75;5090403;28;20111;-34
2022/09/23 04:38:29;;;;;;;2.83;2.38;;;;;;;4.60;73.56;93649.38;5090417;28;20679;-34
2022/09/23 04:40:54;;;;;;;0.88;0.85;;;;;;;4.49;73.18;93645.94;5090373;28;20089;-34
2022/09/23 04:43:22;;;;;;;2.38;2.17;;;;;;;4.56;73.73;93648.88;5090301;28;20543;-34
2022/09/23 04:45:56;;;;;;;0.88;0.88;;;;;;;4.57;73.16;93647.63;5090491;28;20028;-34
2022/09/23 04:48:22;;;;;;;0.80;0.80;;;;;;;4.60;73.57;93654.84;5090119;28;20117;-34
2022/09/23 04:50:47;;;;;;;1.50;1.40;;;;;;;4.52;73.26;93645.69;5090100;28;20028;-34
2022/09/23 04:53:13;;;;;;;0.93;0.93;;;;;;;4.32;73.50;93631.59;5090204;28;20020;-34
2022/09/23 04:55:40;;;;;;;1.25;1.23;;;;;;;4.66;73.14;93651.34;5089960;28;20063;-34
2022/09/23 04:58:07;;;;;;;0.68;0.68;;;;;;;4.74;73.14;93652.28;5089960;28;20031;-34
2022/09/23 05:00:33;;;;;;;0.85;0.85;;;;;;;4.67;73.92;93653.56;5094710;28;20024;-36
2022/09/23 05:02:59;;;;;;;1.30;1.30;;;;;;;4.82;73.74;93655.94;5110132;28;20046;-34
2022/09/23 05:05:25;;;;;;;2.38;1.73;;;;;;;4.78;74.37;93658.22;5108930;28;20038;-34
2022/09/23 05:07:50;;;;;;;2.15;2.05;;;;;;;4.86;74.10;93653.69;5110178;28;20583;-34
2022/09/23 05:10:16;;;;;;;2.78;2.58;;;;;;;4.93;73.97;93653.91;5113037;28;20023;-34
2022/09/23 05:12:42;;;;;;;2.67;1.95;;;;;;;4.97;74.37;93648.91;5112636;28;20026;-34
2022/09/23 05:15:08;;;;;;;1.27;0.93;;;;;;;5.28;74.82;93666.84;5113848;28;20032;-34
2022/09/23 05:17:33;;;;;;;0.65;0.65;;;;;;;5.18;74.48;93668.41;5114041;28;20027;-34
2022/09/23 05:19:58;;;;;;;2.05;1.95;;;;;;;5.32;74.55;93667.31;5113770;28;20410;-34
2022/09/23 05:22:25;;;;;;;1.30;1.30;;;;;;;5.39;74.31;93672.97;5113597;28;20031;-34
2022/09/23 05:24:51;;;;;;;1.02;1.02;;;;;;;5.22;74.33;93633.28;5112090;28;20030;-34
2022/09/23 05:27:17;;;;;;;1.27;1.17;;;;;;;5.38;74.52;93654.31;5093178;28;20027;-34
2022/09/23 05:29:42;;;;;;;1.48;1.38;;;;;;;5.56;74.45;93681.06;5093044;28;20023;-34
2022/09/23 05:32:08;;;;;;;1.30;1.30;;;;;;;5.56;74.58;93672.84;5093395;28;20024;-34
2022/09/23 05:34:34;;;;;;;2.38;2.28;;;;;;;5.55;74.77;93673.34;5093306;28;20423;-34
2022/09/23 05:36:59;;;;;;;1.83;1.73;;;;;;;5.62;75.17;93672.78;5093051;28;20027;-34
2022/09/23 05:39:25;;;;;;;0.95;0.95;;;;;;;5.59;75.42;93674.53;5093235;28;20039;-34
2022/09/23 05:41:51;;;;;;;0.68;0.68;;;;;;;5.62;75.60;93681.00;5093021;28;20610;-34
2022/09/23 05:44:17;;;;;;;2.55;2.40;;;;;;;5.75;75.66;93681.88;5092854;28;20084;-34
2022/09/23 05:46:42;;;;;;;0.40;0.40;;;;;;;5.78;75.77;93682.88;5093109;28;20024;-34
2022/09/23 05:49:08;;;;;;;2.47;2.28;;;;;;;5.84;76.12;93678.09;5092742;28;20028;-34
2022/09/23 05:51:34;;;;;;;0.82;0.82;;;;;;;5.90;76.05;93679.53;5092686;28;20028;-34
2022/09/23 05:54:02;;;;;;;3.08;1.40;;;;;;;6.06;76.15;93683.38;5092700;28;20031;-34
2022/09/23 05:56:29;;;;;;;0.65;0.65;;;;;;;5.97;76.49;93675.47;5092634;28;20036;-34
2022/09/23 05:58:56;;;;;;;0.77;0.73;;;;;;;6.05;76.93;93676.38;5092610;28;20039;-34
2022/09/23 06:01:26;;;;;;;0.85;0.85;;;;;;;6.17;77.73;93683.25;5104846;28;20112;-34
2022/09/23 06:03:54;;;;;;;1.77;1.67;;;;;;;6.32;77.43;93680.09;5113195;27;20031;-34
2022/09/23 06:06:24;;;;;;;2.53;2.03;;;;;;;6.29;78.43;93683.88;5111918;28;20023;-34
2022/09/23 06:08:50;;;;;;;4.28;2.92;;;;;;;6.36;78.99;93688.78;5111855;28;20050;-34
2022/09/23 06:11:16;;;;;;;9.80;6.07;;;;;;;6.51;78.78;93683.63;5112706;28;20178;-34
2022/09/23 06:13:41;;;;;;;3.83;2.72;;;;;;;6.58;78.75;93678.28;5112913;28;20380;-34
2022/09/23 06:16:12;;;;;;;3.30;3.10;;;;;;;6.81;78.34;93678.75;5112635;28;20024;-34
2022/09/23 06:18:42;;;;;;;1.63;1.52;;;;;;;6.87;77.71;93676.66;5112612;28;20057;-34
2022/09/23 06:21:09;;;;;;;2.22;1.27;;;;;;;7.00;77.64;93679.50;5112409;28;20028;-34
2022/09/23 06:23:35;;;;;;;0.73;0.73;;;;;;;7.14;77.12;93675.56;5112441;28;20036;-34
2022/09/23 06:26:01;;;;;;;10.50;1.42;;;;;;;7.10;77.16;93683.38;5101150;28;20024;-34
2022/09/23 06:28:31;;;;;;;2.95;1.25;;;;;;;7.24;76.88;93681.41;5092222;28;20031;-34
2022/09/23 06:31:01;;;;;;;1.83;1.73;;;;;;;7.29;76.64;93691.56;5092297;28;20098;-34
2022/09/23 06:33:28;;;;;;;1.15;1.15;;;;;;;7.41;75.61;93690.13;5091938;28;20707;-34
2022/09/23 06:35:57;;;;;;;1.10;1.10;;;;;;;7.50;75.95;93687.00;5091853;28;20517;-34
2022/09/23 06:38:24;;;;;;;1.05;1.00;;;;;;;7.40;75.88;93686.66;5092030;28;20039;-34
2022/09/23 06:40:50;;;;;;;0.57;0.57;;;;;;;7.53;76.01;93683.97;5092140;28;20047;-34
2022/09/23 06:43:16;;;;;;;1.55;0.75;;;;;;;7.69;75.72;93686.97;5091615;28;20111;-34
2022/09/23 06:45:41;;;;;;;1.05;1.02;;;;;;;7.72;75.97;93680.41;5090466;28;20115;-34
2022/09/23 06:48:08;;;;;;;0.30;0.30;;;;;;;7.55;75.37;93678.69;5091976;28;20023;-34
2022/09/23 06:50:35;;;;;;;1.10;1.10;;;;;;;7.58;75.11;93688.63;5091892;28;20036;-34
2022/09/23 06:53:02;;;;;;;1.30;1.30;;;;;;;7.63;76.19;93693.28;5090602;28;20024;-34
2022/09/23 06:55:27;;;;;;;1.42;1.17;;;;;;;7.65;75.51;93684.53;5091623;28;20016;-34
2022/09/23 06:58:02;;;;;;;1.05;0.88;;;;;;;7.84;75.58;93698.94;5091376;28;20077;-34
2022/09/23 07:00:28;;;;;;;0.57;0.57;;;;;;;7.86;75.17;93701.19;5091342;28;20031;-34
2022/09/23 07:02:53;;;;;;;1.77;1.67;;;;;;;7.95;75.05;93700.78;5091046;28;20044;-34
2022/09/23 07:05:21;;;;;;;0.85;0.85;;;;;;;8.10;74.11;93701.03;5091276;28;20153;-34
2022/09/23 07:07:47;;;;;;;0.68;0.68;;;;;;;8.09;74.21;93705.78;5091568;28;20105;-34
2022/09/23 07:10:13;;;;;;;0.77;0.77;;;;;;;8.27;74.54;93707.00;5091433;28;20507;-34
2022/09/23 07:12:38;;;;;;;0.55;0.55;;;;;;;8.31;73.73;93715.69;5091522;28;20027;-34
2022/09/23 07:15:04;;;;;;;0.55;0.55;;;;;;;8.47;73.43;93717.38;5091071;28;20028;-34
2022/09/23 07:17:30;;;;;;;0.55;0.55;;;;;;;8.57;72.56;93717.69;5091059;28;20028;-34
2022/09/23 07:19:57;;;;;;;2.63;2.42;;;;;;;8.66;72.20;93720.78;5091027;28;20027;-34
2022/09/23 07:22:23;;;;;;;1.48;1.48;;;;;;;8.82;71.76;93716.94;5090779;28;20514;-34
2022/09/23 07:24:50;;;;;;;0.88;0.88;;;;;;;8.90;71.88;93723.28;5090687;28;20028;-34
2022/09/23 07:27:18;;;;;;;0.43;0.43;;;;;;;8.95;70.55;93721.69;5090929;28;20115;-34
2022/09/23 07:29:53;;;;;;;0.55;0.55;;;;;;;8.94;69.00;93726.44;5108275;28;20028;-34
2022/09/23 07:32:20;;;;;;;1.10;1.10;;;;;;;9.07;69.47;93718.16;5110842;28;20051;-34
2022/09/23 07:34:46;;;;;;;0.43;0.43;;;;;;;9.26;70.24;93731.06;5111184;28;20035;-34
2022/09/23 07:37:14;;;;;;;0.80;0.80;;;;;;;9.31;69.71;93735.72;5110191;28;20104;-34
2022/09/23 07:39:40;;;;;;;7.07;2.03;;;;;;;9.31;69.55;93736.47;5111061;28;20136;-34
2022/09/23 07:42:06;;;;;;;0.70;0.70;;;;;;;9.39;69.96;93725.53;5103117;28;20109;-34
2022/09/23 07:44:32;;;;;;;2.35;2.25;;;;;;;9.65;68.54;93731.72;5090591;28;20507;-34
2022/09/23 07:46:59;;;;;;;0.50;0.50;;;;;;;9.75;69.00;93737.47;5090581;28;20117;-34
2022/09/23 07:49:25;;;;;;;0.98;0.98;;;;;;;9.66;68.57;93735.94;5090625;28;20039;-34
2022/09/23 07:51:51;;;;;;;0.90;0.73;;;;;;;9.70;68.96;93724.59;5090495;28;20035;-34
2022/09/23 07:54:17;;;;;;;1.15;1.15;;;;;;;9.79;68.20;93726.84;5090675;28;20024;-34
2022/09/23 07:56:44;;;;;;;0.82;0.82;;;;;;;9.92;67.23;93713.00;5090418;28;20089;-34
2022/09/23 07:59:15;;;;;;;0.68;0.68;;;;;;;10.20;67.25;93720.66;5090672;28;20069;-34
2022/09/23 08:01:44;;;;;;;1.45;1.42;;;;;;;10.70;65.30;93725.59;5105571;28;20535;-34
2022/09/23 08:04:21;;;;;;;0.30;0.30;;;;;;;10.93;63.65;93729.25;5110813;28;20027;-34
2022/09/23 08:06:49;;;;;;;0.55;0.55;;;;;;;10.83;62.51;93722.00;5110852;28;20066;-35
2022/09/23 08:09:16;;;;;;;0.32;0.32;;;;;;;11.21;63.44;93720.16;5110709;28;20027;-34
2022/09/23 08:11:42;;;;;;;0.28;0.28;;;;;;;11.90;61.71;93730.94;5110679;28;20161;-34
2022/09/23 08:14:12;;;;;;;1.17;1.17;;;;;;;12.54;59.83;93721.56;5111025;28;20411;-34
2022/09/23 08:16:38;;;;;;;0.50;0.50;;;;;;;12.74;57.70;93713.03;5110669;28;20035;-34
2022/09/23 08:19:05;;;;;;;0.93;0.80;;;;;;;12.85;56.55;93717.44;5096158;28;20422;-35
2022/09/23 08:21:31;;;;;;;0.40;0.40;;;;;;;13.35;56.56;93716.41;5089098;28;20427;-35
2022/09/23 08:23:57;;;;;;;1.30;1.00;;;;;;;14.66;51.82;93710.97;5090502;28;20028;-35
2022/09/23 08:26:22;;;;;;;0.88;0.60;;;;;;;16.29;48.34;93699.03;5089834;28;20423;-35
2022/09/23 08:28:53;;;;;;;1.05;0.88;;;;;;;18.16;44.21;93703.75;5090485;28;20056;-35
2022/09/23 08:31:20;;;;;;;0.40;0.40;;;;;;;18.58;42.37;93709.50;5090222;28;20544;-35
2022/09/23 08:33:46;;;;;;;0.60;0.60;;;;;;;19.71;40.11;93705.16;5090130;28;20028;-35
2022/09/23 08:36:11;;;;;;;0.50;0.50;;;;;;;20.83;36.74;93684.16;5090145;28;20028;-35
2022/09/23 08:38:37;;;;;;;0.40;0.40;;;;;;;21.27;35.61;93699.38;5089958;28;20031;-35
2022/09/23 08:41:40;;;;;;;0.32;0.32;;;;;;;20.83;36.13;93691.84;5090058;28;20023;-35
2022/09/23 08:44:24;;;;;;;0.20;0.20;;;;;;;21.32;34.85;93693.38;5071208;28;20032;-35
2022/09/23 08:47:10;;;;;;;0.95;0.90;;;;;;;21.82;35.56;93685.06;5089663;28;20021;-35
2022/09/23 08:49:59;;;;;;;0.82;0.82;;;;;;;22.15;34.15;93681.97;5074105;28;20046;-35
2022/09/23 08:52:30;;;;;;;1.17;0.70;;;;;;;22.70;32.67;93682.13;5073884;28;20035;-35
2022/09/23 08:54:57;;;;;;;1.38;1.05;;;;;;;23.03;31.98;93671.16;5073878;28;20028;-36
2022/09/23 08:57:37;;;;;;;0.25;0.25;;;;;;;24.15;30.44;93676.06;5073381;28;20055;-36
2022/09/23 09:00:04;;;;;;;0.90;0.55;;;;;;;24.26;29.60;93675.19;5092667;28;20021;-36
2022/09/23 09:02:32;;;;;;;0.65;0.65;;;;;;;25.19;29.50;93674.50;5114000;28;20047;-35
2022/09/23 09:04:59;;;;;;;;;;;;;;;25.45;28.23;93672.09;5114573;28;20479;-36
2022/09/23 09:07:30;;;;;;;0.20;0.20;;;;;;;25.05;27.35;93671.06;5113092;28;19973;-35
2022/09/23 09:10:19;;;;;;;0.45;0.45;;;;;;;25.28;27.62;93670.66;5113088;28;20415;-36
2022/09/23 09:12:49;;;;;;;0.20;0.20;;;;;;;24.59;28.22;93671.75;5114201;27;20023;-35
2022/09/23 09:15:26;;;;;;;0.45;0.45;;;;;;;24.99;27.57;93664.41;5101063;28;20078;-35
2022/09/23 09:17:54;;;;;;;0.13;0.13;;;;;;;24.58;27.54;93664.69;5093384;28;20114;-35
2022/09/23 09:20:31;;;;;;;0.00;0.00;;;;;;;24.40;28.13;93670.22;5093360;28;20022;-35
2022/09/23 09:23:01;;;;;;;0.10;0.10;;;;;;;24.38;28.65;93667.31;5093251;28;20035;-35
2022/09/23 09:25:42;;;;;;;0.20;0.20;;;;;;;24.90;27.38;93662.59;5093005;28;20023;-35
2022/09/23 09:28:17;;;;;;;0.30;0.30;;;;;;;25.52;26.70;93657.56;5096777;28;20019;-35
2022/09/23 09:30:44;;;;;;;0.10;0.10;;;;;;;25.22;27.33;93667.56;5095548;28;20411;-36
2022/09/23 09:33:18;;;;;;;0.05;0.05;;;;;;;25.52;26.37;93649.09;5112284;28;20020;-35
2022/09/23 09:35:52;;;;;;;0.45;0.45;;;;;;;26.40;25.29;93656.88;5113463;28;20027;-36
2022/09/23 09:38:20;;;;;;;0.22;0.22;;;;;;;26.33;26.77;93660.13;5113327;28;20023;-36
2022/09/23 09:40:47;;;;;;;0.43;0.38;;;;;;;26.16;26.62;93662.31;5113352;28;20566;-36
2022/09/23 09:43:21;;;;;;;0.30;0.30;;;;;;;25.97;25.71;93660.13;5095876;28;20039;-35
2022/09/23 09:46:12;;;;;;;1.08;1.05;;;;;;;26.15;26.22;93648.81;5092841;28;20032;-36
2022/09/23 09:48:39;;;;;;;0.10;0.10;;;;;;;23.78;28.51;93662.28;5093111;28;20074;-35
2022/09/23 09:51:41;;;;;;;0.50;0.50;;;;;;;23.76;28.55;93669.91;5091439;28;20107;-35
2022/09/23 09:54:22;;;;;;;0.20;0.20;;;;;;;22.15;31.08;93675.59;5049863;28;20032;-35
2022/09/23 09:56:48;;;;;;;5.05;0.95;;;;;;;20.79;32.56;93669.16;5092577;28;20027;-35
2022/09/23 09:59:23;;;;;;;0.47;0.47;;;;;;;19.87;35.60;93680.94;5091612;28;20024;-35
2022/09/23 10:01:49;;;;;;;1.00;0.30;;;;;;;19.31;35.25;93675.94;5107781;28;20043;-35
2022/09/23 10:04:27;;;;;;;0.50;0.50;;;;;;;18.80;36.79;93673.91;5113103;28;20041;-35
2022/09/23 10:07:13;;;;;;;2.53;1.55;;;;;;;18.50;37.36;93674.66;5111941;28;20019;-35
2022/09/23 10:09:42;;;;;;;0.85;0.85;;;;;;;18.13;38.05;93658.16;5113105;27;20019;-35
2022/09/23 10:12:14;;;;;;;;;;;;;;;18.35;38.93;93670.16;5095316;27;20081;-35
2022/09/23 10:14:41;;;;;;;0.50;0.50;;;;;;;18.42;37.56;93672.03;5092555;28;20456;-35
2022/09/23 10:17:12;;;;;;;0.40;0.40;;;;;;;18.19;37.96;93664.16;5092260;28;20024;-35
2022/09/23 10:19:44;;;;;;;2.75;0.98;;;;;;;18.06;37.56;93666.75;5091116;28;20020;-34
2022/09/23 10:22:17;;;;;;;0.38;0.38;;;;;;;17.87;38.03;93667.50;5090912;28;20032;-35
2022/09/23 10:24:48;;;;;;;0.30;0.30;;;;;;;17.89;38.81;93667.66;5090957;28;20020;-35
2022/09/23 10:27:13;;;;;;;0.30;0.30;;;;;;;17.88;38.89;93657.81;5071734;28;20028;-35
2022/09/23 10:29:47;;;;;;;0.10;0.10;;;;;;;17.43;39.62;93658.75;5103523;28;20022;-34
2022/09/23 10:32:19;;;;;;;0.35;0.35;;;;;;;17.13;39.58;93662.84;5112368;28;20115;-35
2022/09/23 10:34:48;;;;;;;0.40;0.40;;;;;;;16.52;40.79;93662.47;5112480;27;20415;-34
2022/09/23 10:37:55;;;;;;;0.43;0.43;;;;;;;15.92;42.15;93661.31;5112163;28;20055;-34
2022/09/23 10:46:40;;;;;;;0.20;0.20;;;;;;;15.94;44.35;93667.03;5091999;28;20039;-34
2022/09/23 10:49:39;;;;;;;0.30;0.30;;;;;;;16.13;44.85;93661.56;5090852;28;20032;-34
2022/09/23 10:52:08;;;;;;;0.20;0.20;;;;;;;15.92;44.71;93652.97;5090815;28;20081;-35
2022/09/23 10:55:05;;;;;;;0.30;0.30;;;;;;;15.90;45.69;93653.53;5091840;28;20028;-35
2022/09/23 10:58:20;;;;;;;0.10;0.10;;;;;;;15.71;46.60;93650.66;5090823;28;20043;-35
2022/09/23 11:01:01;;;;;;;0.30;0.30;;;;;;;16.03;46.98;93648.91;5090546;28;20035;-34
2022/09/23 11:03:35;;;;;;;0.57;0.57;;;;;;;15.77;47.32;93639.25;5111994;28;20032;-35
2022/09/23 11:06:23;;;;;;;0.30;0.30;;;;;;;16.49;47.92;93641.28;5111768;28;20024;-35
2022/09/23 11:09:21;;;;;;;0.55;0.55;;;;;;;17.82;44.41;93642.69;5071373;28;20051;-35
2022/09/23 11:11:53;;;;;;;3.80;1.75;;;;;;;18.90;38.49;93638.25;5033685;28;20395;-35
2022/09/23 11:14:50;;;;;;;0.60;0.47;;;;;;;20.40;36.12;93638.75;5070982;28;20081;-35
2022/09/23 11:17:37;;;;;;;0.50;0.50;;;;;;;21.27;32.78;93626.38;5070111;28;20032;-35
2022/09/23 11:20:22;;;;;;;0.38;0.38;;;;;;;21.75;29.93;93620.66;5070839;28;20024;-35
2022/09/23 11:23:12;;;;;;;0.40;0.40;;;;;;;21.23;30.90;93624.03;5071096;28;20024;-35
2022/09/23 11:25:41;;;;;;;0.10;0.10;;;;;;;20.49;31.29;93622.44;5078349;28;20081;-35
2022/09/23 11:28:29;;;;;;;0.20;0.20;;;;;;;19.82;33.35;93645.59;5094300;28;20027;-35
2022/09/23 11:31:13;;;;;;;1.83;0.55;;;;;;;19.00;33.23;93643.75;5100124;28;20464;-35
2022/09/23 11:34:00;;;;;;;0.10;0.10;;;;;;;18.19;35.35;93643.91;5111670;28;20031;-35
2022/09/23 11:36:29;;;;;;;0.68;0.68;;;;;;;17.46;36.75;93640.81;5111428;28;20431;-35
2022/09/23 11:38:56;;;;;;;0.22;0.22;;;;;;;17.08;37.09;93630.41;5111102;28;20031;-35
2022/09/23 11:41:34;;;;;;;0.82;0.82;;;;;;;16.53;37.57;93631.22;5107766;28;20032;-35
2022/09/23 11:44:07;;;;;;;0.27;0.27;;;;;;;16.40;37.23;93616.91;5089659;28;20107;-35
2022/09/23 11:47:01;;;;;;;0.30;0.30;;;;;;;16.57;37.39;93623.16;5089566;28;20402;-35
2022/09/23 11:49:40;;;;;;;0.65;0.65;;;;;;;16.46;37.95;93615.31;5072760;28;20040;-35
2022/09/23 11:52:20;;;;;;;0.20;0.20;;;;;;;16.76;37.93;93625.25;5089356;28;20023;-35
2022/09/23 11:54:56;;;;;;;8.38;0.68;;;;;;;16.59;38.74;93617.72;5090496;28;20076;-35
2022/09/23 11:57:22;;;;;;;1.10;0.88;;;;;;;16.63;38.31;93618.03;5089722;28;20028;-34
2022/09/23 11:59:55;;;;;;;0.88;0.82;;;;;;;16.90;38.97;93614.38;5090461;28;20035;-35
2022/09/23 12:02:54;;;;;;;0.32;0.32;;;;;;;16.79;39.07;93612.16;5068872;28;20044;-35
2022/09/23 12:05:23;;;;;;;0.20;0.20;;;;;;;16.75;37.98;93611.88;5036764;28;20040;-35